Timeline UpdatesTrip UpdatesNews PostsPvt PostsTravel TipsAdmin PostsConv PostsFollowed PostsChat RequestsBlog PostsPNR Posts

Disclaimer
Search
 
 
Thu Sep 18, 2014 19:13:56 ISTHomeTrainsΣChainsAtlasPNRForumGalleryNewsFAQTripsMembersLoginFeedback
No Recent News for this Train
Other Trains in the News **new
Latest...
running with se1
Wed Aug 27, 2014 (09:44AM)
⇐ Return Journey: Train# 18237

18238/Chhattisgarh Express

Time-Table HAS CHANGED.
Sep 04 (10:14PM)
Change Departure Station:
Change Arrival Station:
Post a Train Travel TipPost a Train Travel Tip **new
Post a Comment/Question/Picture/VideoPost a Comment/Question/Picture/Video
Inaugural Run
Sat Jan 01, 1977
Pantry/Catering
✓ Pantry Car Avbl
✓ Catering Avbl
Loco/Rake Reversals
NGP/Nagpur Junction (8);
RSA - Rake Sharing
0
Rake/Coach Composition
LOCO-SLR-GS-S1-S2-S3-S4-S5-S6-S7-S8-S9-S10-PC-S11-S12-B3-B2-B1-A1-HA1-GS-SLR-SP1
Loco
ASR - NZM ---- TKD WDP4 NZM - NGP --- AJNI...
Read more...
WAP7 NGP - BSP --- ET WAP4 Author: Mahesh Gupta Entry# 295348
News    PNR    Forum    Time-Table    Availability    Fare Chart    Map    Arr/Dep History    Trips    Gallery    ΣChains    X/O    Timeline    
Travel Time: 11h 55m    32 halts    Distance: 514 km    Avg Speed: 43 km/hr
Type: Mail/Express
Zone: SECR/South East Central
Departs @ 16:15
Platform# 2
SMTWTFS
Amritsar Junction/ASR 
Arrives @ 04:10 +1 night
Platform# 2
SMTWTFS
Delhi Hazrat Nizamuddin/NZM 

32 halts. 79 intermediate Stations between Amritsar Junction and Delhi Hazrat Nizamuddin

Show ALL intermediate Stations  Show Old Time-Table

#CodeStation NameX/OArrivesAvgDepartsAvgHaltPFDay#KmSpeedElevZoneAddress
1ASRAmritsar Junction (5)»  -16:15-210.077233mNRAmritsar 143002, Punjab
2JNLJandiala (2)  16:30-16:32-2m2119.280238mNRJandiala, Punjab
3BEASBeas Junction (2)  16:50-16:52-2m2143.061238mNRBeas, Punjab
4KREKartarpur (2)X  17:13-17:15-2m1164.568236mNRKartarpur, Punjab
5JUCJalandhar City Junction (5)X  17:28-17:35 17:34-7 6m2179.129239mNRJalandhar 144001, Punjab
6JRCJalandhar Cantt. Junction (3)X  17:48 17:44-17:50 17:46-2m2184.065239mNRNear Rama Mandi, Punjab
7PGWPhagwara Junction (3)  18:05 18:01-18:07 18:03-2m11100.345245mNRPhagwara, Punjab
8GRYGoraya (2)XO  18:21 18:16-18:23 18:18-2m11110.127240mNRGoraya, Punjab
9PHRPhillaur Junction (3)X  18:46-18:48-2m11122.846246mNRPhillaur, Punjab
10LDHLudhiana Junction (7)X  19:05-19:15-10m11135.922246mNRLudhiana 141001, Punjab
11SNLSanehwal (3)X  19:56-19:58-2m21151.155260mNRLudhiana, Punjab
12DOADoraha (2)  20:07 20:06-20:08-1 2m21158.457261mNRDoraha, Punjab
13CHAChawapail (2)X  20:18-20:20-2m21167.866267mNRLudhiana, Punjab
14KNNKhanna (3)  20:30-20:32-2m21178.854269mNRNH 1, Punjab
15GVGMandi Gobindgarh (2)  20:41-20:43-2m21186.949268mNRMandi Gobindgarh, Punjab
16SIRSirhind Junction (3)  20:55-20:57-2m21196.765271mNRSirhind, Punjab
17RPJRajpura Junction (3)X  21:20-21:22-2m21221.556272mNRNH-1, Punjab
18UBCAmbala City (3)X  21:45 21:44-21:46-1 2m11242.021273mNRNH-1, Haryana
19UMBAmbala Cantt. Junction (7)X  22:08-22:20-12m21249.668278mNRAmbala 133001, Haryana
20RAABarara (2)  22:42-22:44-2m11274.371279mNRBarara, Haryana
21JUDWJagadhri Workshop (2)  23:02-23:04-2m11295.643280mNRRailway Workshop Road, Haryana
22JUDYamunanagar-Jagadhri (3)  23:11-23:13-2m21300.635275mNRYamunanagar, Haryana
23SRESaharanpur Junction (6)X  00:05-00:15-10m32330.768276mNRSaharanpur, Uttar Pradesh
24DBDDeoband (2)  00:45-00:47-2m12364.976258mNRSaharanpur, Uttar Pradesh
25MOZMuzaffarnagar (3)  01:06-01:08-2m12388.978247mNRMuzaffarNagar, Uttar Pradesh
26KATKhatauli (2)  01:34 01:25-01:36 01:27-2m--2411.177239mNRKhatauli, Uttar Pradesh
27DRLADaurala (1)  01:56 01:41-01:58 01:43-2m12429.051232mNRMeerut, Uttar Pradesh
28MUTMeerut Cantt. (2)  02:09 01:56-02:11 01:58-2m12440.229230mNRMeerut, Uttar Pradesh
29MTCMeerut City Junction (6)  02:20 02:07-02:25 02:12-5m22444.569229mNRMeerut, Uttar Pradesh
30MDNRModinagar (2)  02:39 02:29-02:41 02:31-2m--2464.060221mNRGhaziabad, Uttar Pradesh
31GUHGuldhar (2)  02:55 02:49-02:57 02:51-2m--2482.116224mNRGhaziabad, Uttar Pradesh
32GZBGhaziabad Junction (6)  03:28-03:30-2m32491.745217mNRGhaziabad, Uttar Pradesh
33SBBSahibabad Junction (5)  03:40 03:39-03:41-1 2m--2498.433209mNRGhaziabad, Uttar Pradesh
34NZMDelhi Hazrat Nizamuddin (7)•X04:15 04:10-04:40-25 30m22514.560209mNRNew Delhi 110013, Delhi NCT
35BVHBallabgarh (5)X  05:09-05:11-2m42543.342203mNRFaridabad, Haryana
36PWLPalwal (8)X  05:41-05:43-2m42564.585200mNRPalwal, Haryana
37KSVKosi Kalan (3)X  06:13-06:15-2m22607.056189mNCRKosi Kalan, Uttar Pradesh
38CHJChata (4)X  06:26-06:28-2m12617.369 NCRChhata, Uttar Pradesh
39MTJMathura Junction (10)X  06:55-07:00-5m12648.462179mNCRMathura, Uttar Pradesh
40RKMRaja Ki Mandi (4)XO  07:48-07:50-2m22698.16170mNCRAgra, Uttar Pradesh
41AGCAgra Cantt. (6)X  08:30-08:40 08:38-10 8m12702.175174mNCRAgra, Uttar Pradesh
42DHODholpur Junction (3)X  09:20-09:22-2m22754.762177mNCRDholpur, Rajasthan
43MRAMorena (3)X  09:45 09:48-09:50-5 2m12781.672176mNCRMorena, Madhya Pradesh
44BAOBanmorXO  10:06-10:08-2m--2800.931189mNCRGwalior, Madhya Pradesh
45GWLGwalior Junction (4)XO  10:45-10:50-5m12820.163214mNCRGwalior, Madhya Pradesh
46DBADabra (3)  11:30-11:32-2m32862.463 NCRDabra(District-Gwalior), Madhya Pradesh
47SORSonagir (2)O  11:50-11:52-2m--2881.330211mNCRDatia, Madhya Pradesh
48DAADatia (2)X  12:15-12:17-2m--2892.828264mNCRDatia, Madhya Pradesh
49JHSJhansi Junction (7)  13:10-13:20-10m--2917.867259mNCRJhansi, Uttar Pradesh
50BABBabina (3)X  13:45 13:43-13:47 13:45-2m12943.352285mNCRBabina, Uttar Pradesh
51BZYBasai (3)X  13:59-14:01-2m12955.459287mNCR07522289600(Gate ManMob. - 9452701575), Madhya Pradesh
52TBTTalbahat (4)X  14:17 14:14-14:19 14:16-2m22968.2100314mNCRKhaniyadhana Station Rd, Madhya Pradesh
53LARLalitpur (3)  14:48 14:40-14:50 14:42-2m121008.291373mNCRLalitpur, Uttar Pradesh
54JLNJakhalaun (3) new halt!!X  14:53-14:55-2m--21024.946394mNCRLalitpur(05176-272220), Uttar Pradesh
55DUADhaura (3)XO  15:10-15:12-2m--21036.528407mNCRDhaura Tanda, Madhya Pradesh
56BINABina Junction (5)X  16:25-16:30-5m221071.169414mWCRJn Pt - KATNI/GUNA/ BPL/JHS, Madhya Pradesh
57MABAMandi Bamora (3)XO  16:45-16:47-2m221088.378413mWCRState Highway 14, Madhya Pradesh
58BAQGanj Basoda (4)  17:09-17:11-2m221116.884 WCRVidisha, Madhya Pradesh
59BHSVidisha (3)X  17:39-17:41-2m221156.154 WCRVidisha, Madhya Pradesh
60BPLBhopal Junction (6)X  18:40-18:45-5m121209.638497mWCRBhopal, Madhya Pradesh
61HBJBhopal HabibGanj (5)  18:55-18:57-2m--21215.943496mWCRHabibGanj, Madhya Pradesh
62HBDHoshangabad (2)XO  20:30-20:32-2m221283.333308mWCRHoshangabad, Madhya Pradesh
63ETItarsi Junction (7)X  21:10 21:05-21:15-5 10m321301.368329mWCRItarsi 461111, Madhya Pradesh
64GDYAGhoradongri (3)X  22:17-22:19-2m--21371.749 CRBetul, Madhya Pradesh
65BZUBetul (3)  23:02 23:03-23:05-3 2m--21407.746644mCRBetul, Madhya Pradesh
66AMLAAmla Junction (5)  23:35-00:10-35m121430.698733mCRAmla Distt. Betul, Madhya Pradesh
67MTYMultai (2)  00:24-00:26-2m--31453.458762mCRMultai, Madhya Pradesh
68PARPandhurna (2)  01:08-01:10-2m131494.285481mCRDistt: Chhindwara, Madhya Pradesh
69NRKRNarkher Junction (4)X  01:23-01:25-2m--31512.566411mCRNarkher, Maharashtra
70KATLKatol (2)X  01:48-01:50-2m--31537.737 CRKatol, Maharashtra
71NGPNagpur Junction (8)03:30-03:55-25m631598.548314mCRNagpur 440001, Maharashtra
72KPKamptee (3)X  04:13-04:15-2m--31612.896290mSECRKamptee, Maharashtra
73BRDBhandara Road (3)  04:45-04:47-2m231660.877266mSECRState Highway 252 Bhandara District, Maharashtra
74TMRTumsar Road (3)  05:01-05:03-2m--31678.781267mSECRBhandara, Maharashtra
75TROTirora (3)  05:18-05:20-2m--31699.157282mSECRDist Gondia, Maharashtra
76GGondia Junction (7)X  05:51-05:56-5m431728.498316mSECRGondia 441601, Maharashtra
77AGNAmgaon (2)  06:10-06:12-2m--31751.280317mSECRGondia, Maharashtra
78SKSSalekasa (2)  06:23-06:25-2m--31765.956312mSECRRajnandgaon, Chhattisgarh
79DGGDongargarh (2)  07:03-07:05-2m--31801.763 SECRDongargarh, Chhattisgarh
80RJNRaj Nandgaon (3)X  07:35-07:40-5m--31833.230313mSECRRajnandgaon, Chhattisgarh
81DURGDurg Junction (6)X  08:40-08:55-15m--31863.760299mSECRPh: 91-788-2322059, Chhattisgarh
82BPHBBhilai Power House (3)X  09:04-09:06-2m--31872.643312mSECRBhilai, Chhattisgarh
83RRaipur Junction (6)  09:45-09:55-10m531900.669297mSECRRaipur, Chhattisgarh
84TLDTilda (3)X  10:28-10:30-2m--31938.849 SECRBanjari Rd, Chhattisgarh
85HNHathbandhX  10:43-10:45-2m--31949.571283mSECRRaipur, Chhattisgarh
86BYTBhatapara (4)X  10:58-11:00-2m--31964.861270mSECRBanjari Road, Chhattisgarh
87BYLBelhaX  11:30-11:32-2m--31995.519269mSECRCollege Road, Chhattisgarh
88BSPBilaspur Junction (8)  12:20--832011.0-271mSECRBilaspur, Chhattisgarh
Scroll to Top
Scroll to Bottom